createdAt,value
2022-12-11T08:31:20.812Z,19.90
2022-12-11T08:33:49.514Z,21.27
2022-12-11T08:36:19.827Z,20.42
2022-12-11T08:38:47.960Z,20.25
2022-12-11T08:41:22.869Z,23.55
2022-12-11T08:43:54.866Z,23.33
2022-12-11T08:46:28.492Z,19.60
2022-12-11T08:48:56.729Z,19.83
2022-12-11T08:51:27.718Z,18.90
2022-12-11T08:53:57.197Z,19.40
2022-12-11T08:56:25.710Z,21.77
2022-12-11T08:58:54.018Z,19.48
2022-12-11T09:01:25.070Z,19.27
2022-12-11T09:03:54.261Z,18.92
2022-12-11T09:06:23.590Z,20.35
2022-12-11T09:08:53.544Z,18.52
2022-12-11T09:14:17.755Z,16.77
2022-12-11T09:16:45.279Z,16.13
2022-12-11T09:19:14.879Z,18.40
2022-12-11T09:21:43.868Z,19.77
2022-12-11T09:24:12.963Z,18.33
2022-12-11T09:26:41.138Z,18.52
2022-12-11T09:29:09.587Z,18.05
2022-12-11T09:31:37.868Z,17.00
2022-12-11T09:34:08.725Z,18.35
2022-12-11T09:36:42.274Z,19.80
2022-12-11T09:39:13.140Z,19.02
2022-12-11T09:41:55.625Z,16.17
2022-12-11T09:44:47.759Z,18.05
2022-12-11T09:47:38.360Z,19.10
2022-12-11T09:50:23.607Z,17.75
2022-12-11T09:53:00.144Z,17.60
2022-12-11T09:56:08.685Z,18.02
2022-12-11T09:59:14.864Z,16.20
2022-12-11T10:01:45.312Z,16.77
2022-12-11T10:04:24.043Z,15.15
2022-12-11T10:07:01.149Z,16.60
2022-12-11T10:09:34.519Z,17.80
2022-12-11T10:12:14.952Z,19.90
2022-12-11T10:14:53.580Z,21.42
2022-12-11T10:17:27.609Z,27.80
2022-12-11T10:19:57.945Z,28.08
2022-12-11T10:22:31.395Z,41.80
2022-12-11T10:25:11.128Z,48.90
2022-12-11T10:27:40.873Z,59.10
2022-12-11T10:30:21.107Z,61.85
2022-12-11T10:33:03.965Z,63.72
2022-12-11T10:35:49.871Z,75.70
2022-12-11T10:38:21.843Z,58.85
2022-12-11T10:40:57.903Z,71.13
2022-12-11T10:43:55.593Z,69.45
2022-12-11T10:46:26.328Z,63.33
2022-12-11T10:49:00.988Z,58.65
2022-12-11T10:51:31.487Z,55.25
2022-12-11T10:54:17.344Z,55.13
2022-12-11T10:56:48.475Z,57.28
2022-12-11T10:59:37.867Z,56.20
2022-12-11T11:02:07.428Z,47.85
2022-12-11T11:04:42.471Z,50.42
2022-12-11T11:07:21.701Z,45.80
2022-12-11T11:09:50.891Z,48.22
2022-12-11T11:12:22.934Z,60.50
2022-12-11T11:15:01.565Z,59.47
2022-12-11T11:17:34.911Z,57.83
2022-12-11T11:20:13.472Z,53.85
2022-12-11T11:22:46.323Z,50.35
2022-12-11T11:25:22.697Z,60.50
2022-12-11T11:27:54.202Z,60.70
2022-12-11T11:30:23.985Z,70.70
2022-12-11T11:32:56.046Z,85.18
2022-12-11T11:35:26.616Z,113.05
2022-12-11T11:37:58.904Z,97.43
2022-12-11T11:40:30.725Z,92.93
2022-12-11T11:43:13.186Z,97.07
2022-12-11T11:45:44.051Z,93.90
2022-12-11T11:50:58.364Z,83.57
2022-12-11T11:53:37.573Z,67.00
2022-12-11T11:56:34.945Z,51.92
2022-12-11T11:59:25.297Z,36.90
2022-12-11T12:01:56.132Z,36.08
2022-12-11T12:07:05.285Z,27.23
2022-12-11T12:12:19.417Z,25.35
2022-12-11T12:15:06.439Z,23.67
2022-12-11T12:18:07.909Z,23.55
2022-12-11T12:20:55.506Z,22.58
2022-12-11T12:23:47.600Z,20.58
2022-12-11T12:26:32.294Z,19.38
2022-12-11T12:29:08.679Z,20.42
2022-12-11T12:31:45.397Z,22.73
2022-12-11T12:34:21.745Z,22.08
2022-12-11T12:37:01.727Z,19.20
2022-12-11T12:39:41.225Z,21.13
2022-12-11T12:42:30.998Z,20.58
2022-12-11T12:45:00.401Z,20.52
2022-12-11T12:47:32.275Z,20.60
2022-12-11T12:50:01.260Z,19.05
2022-12-11T12:52:34.796Z,19.95
2022-12-11T12:55:13.921Z,25.75
2022-12-11T12:57:58.663Z,18.88
2022-12-11T13:00:43.752Z,19.80
2022-12-11T13:03:29.314Z,18.08
2022-12-11T13:06:09.961Z,19.45
2022-12-11T13:08:50.122Z,18.02
2022-12-11T13:11:20.815Z,21.73
2022-12-11T13:16:34.550Z,26.85
2022-12-11T13:19:02.198Z,27.95
2022-12-11T13:21:36.280Z,28.40
2022-12-11T13:24:25.627Z,36.03
2022-12-11T13:26:53.453Z,43.65
2022-12-11T13:29:38.592Z,42.75
2022-12-11T13:32:17.964Z,52.78
2022-12-11T13:34:53.696Z,51.80
2022-12-11T13:37:29.831Z,49.20
2022-12-11T13:39:57.606Z,48.90
2022-12-11T13:42:50.838Z,42.30
2022-12-11T13:45:35.013Z,27.50
2022-12-11T13:48:04.962Z,36.58
2022-12-11T13:50:34.629Z,38.13
2022-12-11T13:53:03.399Z,39.92
2022-12-11T13:55:33.810Z,38.92
2022-12-11T13:58:01.850Z,42.25
2022-12-11T14:00:32.673Z,39.78
2022-12-11T14:03:07.581Z,36.92
2022-12-11T14:05:35.582Z,36.22
2022-12-11T14:08:09.082Z,35.10
2022-12-11T14:10:37.336Z,32.88
2022-12-11T14:13:20.813Z,31.05
2022-12-11T14:15:48.510Z,29.83
2022-12-11T14:18:23.729Z,29.23
2022-12-11T14:21:00.731Z,29.55
2022-12-11T14:23:30.765Z,28.02
2022-12-11T14:26:02.233Z,27.97
2022-12-11T14:28:37.376Z,28.95
2022-12-11T14:31:06.634Z,30.15
2022-12-11T14:33:43.764Z,31.10
2022-12-11T14:36:11.730Z,32.53
2022-12-11T14:38:55.586Z,24.50
2022-12-11T14:41:34.172Z,27.75
2022-12-11T14:44:06.026Z,30.30
2022-12-11T14:50:10.095Z,30.42
2022-12-11T14:52:42.793Z,32.30
2022-12-11T14:55:19.852Z,30.48
2022-12-11T14:57:50.872Z,31.23
2022-12-11T15:00:30.586Z,33.03
2022-12-11T15:03:01.183Z,26.33
2022-12-11T15:05:29.559Z,34.38
2022-12-11T15:08:24.636Z,32.90
2022-12-11T15:11:11.755Z,30.30
2022-12-11T15:13:54.360Z,33.25
2022-12-11T15:16:24.680Z,33.90
2022-12-11T15:18:54.353Z,35.88
2022-12-11T15:21:35.734Z,39.13
2022-12-11T15:24:05.845Z,38.05
2022-12-11T15:26:37.321Z,34.87
2022-12-11T15:29:23.390Z,35.50
2022-12-11T15:32:02.702Z,35.65
2022-12-11T15:34:42.295Z,36.75
2022-12-11T15:37:23.093Z,34.88
2022-12-11T15:39:51.453Z,36.42
2022-12-11T15:42:39.704Z,34.20
2022-12-11T15:45:15.018Z,36.58
2022-12-11T15:47:43.490Z,39.20
2022-12-11T15:50:20.912Z,34.88
2022-12-11T15:52:49.477Z,37.70
2022-12-11T15:55:18.266Z,40.80
2022-12-11T15:57:48.208Z,44.97
2022-12-11T16:00:21.618Z,40.20
2022-12-11T16:02:49.171Z,42.10
2022-12-11T16:05:16.796Z,44.15
2022-12-11T16:07:44.740Z,43.40
2022-12-11T16:10:16.201Z,48.35
2022-12-11T16:12:44.503Z,45.35
2022-12-11T16:15:17.462Z,56.90
2022-12-11T16:17:49.435Z,57.20
2022-12-11T16:20:18.197Z,53.78
2022-12-11T16:22:45.797Z,48.50
2022-12-11T16:25:14.063Z,60.25
2022-12-11T16:27:41.825Z,60.05
2022-12-11T16:30:11.104Z,52.38
2022-12-11T16:32:39.119Z,53.05
2022-12-11T16:35:07.087Z,51.95
2022-12-11T16:37:34.821Z,54.17
2022-12-11T16:40:02.337Z,54.80
2022-12-11T16:42:30.135Z,55.95
2022-12-11T16:45:23.066Z,54.70
2022-12-11T16:47:51.038Z,61.40
2022-12-11T16:50:18.648Z,50.15
2022-12-11T16:52:47.194Z,50.88
2022-12-11T16:55:15.657Z,52.75
2022-12-11T16:57:43.289Z,50.45
2022-12-11T17:00:14.049Z,47.28
2022-12-11T17:02:41.665Z,44.20
2022-12-11T17:05:10.093Z,43.78
2022-12-11T17:07:38.116Z,40.83
2022-12-11T17:10:08.714Z,44.78
2022-12-11T17:12:36.647Z,45.13
2022-12-11T17:15:04.612Z,38.88
2022-12-11T17:17:32.312Z,38.40
2022-12-11T17:20:00.084Z,39.78
2022-12-11T17:22:28.074Z,39.50
2022-12-11T17:24:55.518Z,40.55
2022-12-11T17:27:22.976Z,38.75
2022-12-11T17:29:50.960Z,36.47
2022-12-11T17:32:18.820Z,38.67
2022-12-11T17:34:48.635Z,35.85
2022-12-11T17:37:17.216Z,34.88
2022-12-11T17:39:45.291Z,35.97
2022-12-11T17:42:13.010Z,36.63
2022-12-11T17:44:40.739Z,38.95
2022-12-11T17:47:11.274Z,40.45
2022-12-11T17:49:39.754Z,42.70
2022-12-11T17:52:07.460Z,43.08
2022-12-11T17:54:35.084Z,47.15
2022-12-11T17:57:02.685Z,43.15
2022-12-11T17:59:30.165Z,45.17
2022-12-11T18:01:58.049Z,41.00
2022-12-11T18:04:27.123Z,42.80
2022-12-11T18:06:54.856Z,41.22
2022-12-11T18:09:22.315Z,42.13
2022-12-11T18:11:49.807Z,44.75
2022-12-11T18:14:17.782Z,44.13
2022-12-11T18:16:45.295Z,41.67
2022-12-11T18:19:14.594Z,39.28
2022-12-11T18:21:45.780Z,40.03
2022-12-11T18:24:14.155Z,42.63
2022-12-11T18:26:44.332Z,39.80
2022-12-11T18:29:12.014Z,43.42
2022-12-11T18:31:42.663Z,39.63
2022-12-11T18:36:40.661Z,39.17
2022-12-11T18:39:08.258Z,42.33
2022-12-11T18:41:35.841Z,36.85
2022-12-11T18:44:09.331Z,54.88
2022-12-11T18:46:37.683Z,57.75
2022-12-11T18:49:05.868Z,49.67
2022-12-11T18:51:34.146Z,45.95
2022-12-11T18:54:01.665Z,42.33
2022-12-11T18:56:29.300Z,43.40
2022-12-11T18:58:57.049Z,41.67
2022-12-11T19:01:27.276Z,38.47
2022-12-11T19:04:02.010Z,39.60
2022-12-11T19:06:33.313Z,41.63
2022-12-11T19:09:02.526Z,39.53
2022-12-11T19:11:32.548Z,38.47
2022-12-11T19:14:00.509Z,38.87
2022-12-11T19:16:33.841Z,37.05
2022-12-11T19:19:14.072Z,38.92
2022-12-11T19:21:42.972Z,36.63
2022-12-11T19:24:15.399Z,41.55
2022-12-11T19:26:43.897Z,37.72
2022-12-11T19:29:24.564Z,39.03
2022-12-11T19:31:52.393Z,37.45
2022-12-11T19:34:20.235Z,36.47
2022-12-11T19:36:48.312Z,36.88
2022-12-11T19:39:16.560Z,35.28
2022-12-11T19:41:44.278Z,32.13
2022-12-11T19:44:12.404Z,32.40
2022-12-11T19:46:40.401Z,29.58
2022-12-11T19:49:07.995Z,32.05
2022-12-11T19:51:40.819Z,30.92
2022-12-11T19:54:13.627Z,30.40
2022-12-11T19:56:41.410Z,27.83
2022-12-11T19:59:11.792Z,26.42
2022-12-11T20:01:39.661Z,26.38
2022-12-11T20:04:13.225Z,25.60
2022-12-11T20:06:43.591Z,26.30
2022-12-11T20:09:13.108Z,28.55
2022-12-11T20:11:42.720Z,24.98
2022-12-11T20:14:26.215Z,23.13
2022-12-11T20:17:14.006Z,23.35
2022-12-11T20:19:42.521Z,23.30
2022-12-11T20:22:10.656Z,24.02
2022-12-11T20:24:38.273Z,27.25
2022-12-11T20:27:06.155Z,24.58
2022-12-11T20:29:33.663Z,24.20
2022-12-11T20:32:01.198Z,23.25
2022-12-11T20:34:29.048Z,24.17
2022-12-11T20:36:56.543Z,24.77
2022-12-11T20:39:24.438Z,26.05
2022-12-11T20:41:52.155Z,25.05
2022-12-11T20:44:20.192Z,25.45
2022-12-11T20:46:47.652Z,24.00
2022-12-11T20:49:15.169Z,25.85
2022-12-11T20:51:43.972Z,25.15
2022-12-11T20:54:11.731Z,25.70
2022-12-11T20:56:39.362Z,24.00
2022-12-11T20:59:07.038Z,22.70
2022-12-11T21:01:35.062Z,23.45
2022-12-11T21:04:02.696Z,24.10
2022-12-11T21:06:33.225Z,24.98
2022-12-11T21:09:03.920Z,24.52
2022-12-11T21:11:31.700Z,20.90
2022-12-11T21:13:59.415Z,20.92
2022-12-11T21:16:27.768Z,22.70
2022-12-11T21:18:56.752Z,22.65
2022-12-11T21:21:25.316Z,20.58
2022-12-11T21:23:52.970Z,21.95
2022-12-11T21:26:20.611Z,22.63
2022-12-11T21:28:48.216Z,21.42
2022-12-11T21:31:18.810Z,21.88
2022-12-11T21:33:48.040Z,22.33
2022-12-11T21:36:18.472Z,20.42
2022-12-11T21:38:46.684Z,21.13
2022-12-11T21:41:18.147Z,21.83
2022-12-11T21:44:40.999Z,21.38
2022-12-11T21:46:35.708Z,21.80
2022-12-11T21:49:03.699Z,22.85
2022-12-11T21:51:37.120Z,22.77
2022-12-11T21:54:07.655Z,24.90
2022-12-11T21:56:35.209Z,23.77
2022-12-11T21:59:03.222Z,25.08
2022-12-11T22:01:34.291Z,23.63
2022-12-11T22:04:02.753Z,21.08
2022-12-11T22:06:30.461Z,23.23
2022-12-11T22:08:58.025Z,25.27
2022-12-11T22:11:29.497Z,23.70
2022-12-11T22:13:57.142Z,24.08
2022-12-11T22:16:25.074Z,23.25
2022-12-11T22:18:53.741Z,22.23
2022-12-11T22:21:21.351Z,23.15
2022-12-11T22:23:48.865Z,23.73
2022-12-11T22:26:20.115Z,21.65
2022-12-11T22:28:49.030Z,23.13
2022-12-11T22:31:20.574Z,22.65
2022-12-11T22:33:50.172Z,23.90
2022-12-11T22:36:19.116Z,22.40
2022-12-11T22:38:47.752Z,23.58
2022-12-11T22:41:42.056Z,21.50
2022-12-11T22:44:18.071Z,23.25
2022-12-11T22:46:49.981Z,23.35
2022-12-11T22:49:19.187Z,22.95
2022-12-11T22:51:46.850Z,22.65
2022-12-11T22:54:14.411Z,20.58
2022-12-11T22:56:42.269Z,21.33
2022-12-11T22:59:09.808Z,21.75
2022-12-11T23:01:37.403Z,19.17
2022-12-11T23:04:05.410Z,20.42
2022-12-11T23:06:33.091Z,21.60
2022-12-11T23:09:01.123Z,17.88
2022-12-11T23:11:36.296Z,19.73
2022-12-11T23:14:05.873Z,18.40
2022-12-11T23:16:33.792Z,18.20
2022-12-11T23:19:01.428Z,17.60
2022-12-11T23:21:29.297Z,15.18
2022-12-11T23:23:57.923Z,15.98
2022-12-11T23:26:27.281Z,15.50
2022-12-11T23:28:56.675Z,15.75
2022-12-11T23:31:25.571Z,15.32
2022-12-11T23:33:53.616Z,15.55
2022-12-11T23:36:21.682Z,16.13
2022-12-11T23:38:54.363Z,16.33
2022-12-11T23:41:22.553Z,14.65
2022-12-11T23:43:50.313Z,14.77
2022-12-11T23:46:21.506Z,14.55
2022-12-11T23:48:49.559Z,16.27
2022-12-11T23:51:19.039Z,14.82
2022-12-11T23:53:47.017Z,16.05
2022-12-11T23:56:20.808Z,15.40
2022-12-11T23:58:48.549Z,13.40
